ハリファックス の空港の天気 - METARとTAF

ハリファックス国際空港 ( CYHZ / YHZ ) - カナダ ノバスコシア州ハリファックス
飛行場実況気象(Metar)
観測時間05/25 01:00 ADT (05/25 04:00 UTC)
風向・風速南西 5m/s
視程10km以上
天気現象
少しの雲 雲底高度 8230m
気温5℃
湿度48%
気圧1028.1hPa
METARCYHZ 250400Z 22009KT 15SM FEW270 05/M05 A3035 RMK CI1 SLP281
過去の天気等 Google飛行場航空写真 Wunderground天気予報

過去48時間のMETAR

飛行場予報(TAF)
発表時間: 5/24 23:30 ADT (5/25 02:30 UTC)
予報対象時間: 25日0時 ADT ~ 25日21時 ADT
風向・風速南南西 5m/s
視程10km以上
少しの雲 雲底高度 2440m
全天の4割程度の雲 雲底高度 7620m
TAF CYHZ 250230Z 2503/2524 21010KT P6SM FEW080 SCT250 RMK NXT FCST BY 250600Z